LTAU/ASR METAR and TAF weather

Enter ICAO airport designator
Station Type Date Time Source
LTAU METAR 2019/12/10 19:20 UTC NOAA

LTAU 101920Z 00000KT 6000 FEW015 BKN080 M00/M01 Q1017 NOSIG


Station Type Date Time Source
LTAU Decoded METAR 2019/12/10 19:20 UTC NOAA

Kayseri / Erkilet, Turkey (LTAU) 38-47N 035-29E 1054M
Dec 10, 2019 - 02:20 PM EST / 2019.12.10 1920 UTC
Wind: Calm:0
Visibility: 3 mile(s):0
Sky conditions: mostly cloudy
Temperature: 32 F (0 C)
Dew Point: 30 F (-1 C)
Relative Humidity: 92%
Pressure (altimeter): 30.03 in. Hg (1017 hPa)
ob: LTAU 101920Z 00000KT 6000 FEW015 BKN080 M00/M01 Q1017 NOSIG
cycle: 19

Station Type Date Time Source
LTAU TAF 2019/12/10 18:03 UTC NOAA

TAF LTAU 101640Z 1018/1118 VRB02KT 8000 SCT015 PROB40
TEMPO 1103/1106 2500 BR SCT015 BKN025
TEMPO 1106/1110 SCT015 BKN035
BECMG 1110/1113 BKN035 BKN090

Example: see airport list